Time;durP1;ratioP1;P1;durP2;ratioP2;P2;SDS_P1;SDS_P2;PMS_P1;PMS_P2;Temp;Humidity;BMP_temperature;BMP_pressure;BME280_temperature;BME280_humidity;BME280_pressure;Samples;Min_cycle;Max_cycle;Signal;HPM_P1;HPM_P2
2022/03/13 00:00:46;;;;;;;18.58;12.88;;;;;;;0.87;52.91;101330.03;4987211;28;20022;-22
2022/03/13 00:03:14;;;;;;;16.27;12.20;;;;;;;0.82;53.05;101336.75;5000330;28;20611;-22
2022/03/13 00:05:41;;;;;;;18.05;13.27;;;;;;;0.77;52.76;101335.69;4998026;28;20109;-22
2022/03/13 00:08:19;;;;;;;14.63;11.80;;;;;;;0.74;53.07;101333.81;5004032;28;20014;-22
2022/03/13 00:10:50;;;;;;;16.50;13.15;;;;;;;0.69;52.76;101321.47;4997781;28;20029;-21
2022/03/13 00:13:18;;;;;;;18.17;13.23;;;;;;;0.64;52.99;101327.34;4995248;28;20603;-22
2022/03/13 00:15:44;;;;;;;19.48;12.90;;;;;;;0.60;52.59;101330.66;4998710;28;20038;-21
2022/03/13 00:18:10;;;;;;;18.50;13.25;;;;;;;0.55;53.13;101324.38;4996344;28;20369;-21
2022/03/13 00:20:35;;;;;;;20.83;12.57;;;;;;;0.51;52.87;101330.28;4996837;28;20074;-21
2022/03/13 00:23:01;;;;;;;16.52;13.18;;;;;;;0.46;52.85;101326.56;4979339;28;20026;-22
2022/03/13 00:25:26;;;;;;;15.20;12.07;;;;;;;0.43;52.64;101332.53;4997265;28;20022;-23
2022/03/13 00:27:52;;;;;;;19.00;13.63;;;;;;;0.40;53.17;101329.78;4993309;28;20030;-22
2022/03/13 00:30:17;;;;;;;20.00;13.13;;;;;;;0.35;52.85;101329.63;4994094;28;20058;-21
2022/03/13 00:32:43;;;;;;;16.98;12.52;;;;;;;0.31;53.33;101327.72;4994914;28;20049;-23
2022/03/13 00:35:10;;;;;;;15.68;12.25;;;;;;;0.27;53.54;101320.63;4998715;28;20588;-21
2022/03/13 00:37:36;;;;;;;16.55;12.57;;;;;;;0.24;53.05;101316.16;4995515;28;20485;-22
2022/03/13 00:40:01;;;;;;;14.05;12.55;;;;;;;0.20;53.15;101313.38;4998130;28;20026;-22
2022/03/13 00:42:28;;;;;;;17.38;12.27;;;;;;;0.16;53.71;101312.34;5009865;28;20022;-22
2022/03/13 00:44:53;;;;;;;14.75;11.90;;;;;;;0.12;53.39;101315.63;4995007;28;20022;-22
2022/03/13 00:47:20;;;;;;;15.40;12.15;;;;;;;0.05;53.37;101311.88;4996976;28;20026;-21
2022/03/13 00:49:46;;;;;;;14.70;12.25;;;;;;;0.04;53.34;101312.69;4996375;28;20018;-21
2022/03/13 00:52:11;;;;;;;17.40;12.30;;;;;;;-0.01;53.34;101316.78;4993577;28;20026;-22
2022/03/13 00:54:37;;;;;;;16.27;11.63;;;;;;;-0.06;53.88;101311.41;4997955;28;20408;-21
2022/03/13 00:57:03;;;;;;;15.18;10.93;;;;;;;-0.07;53.99;101314.78;4993089;28;20026;-23
2022/03/13 00:59:28;;;;;;;15.73;11.90;;;;;;;-0.11;54.05;101319.81;4996838;28;20026;-22
2022/03/13 01:01:53;;;;;;;18.83;12.15;;;;;;;-0.16;53.97;101310.06;4997569;28;20045;-22
2022/03/13 01:04:19;;;;;;;17.13;12.52;;;;;;;-0.21;54.20;101306.41;4996370;28;20026;-22
2022/03/13 01:06:45;;;;;;;14.30;11.68;;;;;;;-0.22;54.34;101311.50;4998135;28;20345;-20
2022/03/13 01:09:11;;;;;;;15.40;11.30;;;;;;;-0.26;54.16;101305.31;4994987;28;20121;-22
2022/03/13 01:11:36;;;;;;;15.55;11.38;;;;;;;-0.31;54.53;101301.59;4996044;28;20103;-22
2022/03/13 01:14:02;;;;;;;15.32;12.25;;;;;;;-0.34;54.10;101301.50;4996183;28;20429;-22
2022/03/13 01:16:30;;;;;;;13.45;11.65;;;;;;;-0.37;54.28;101303.94;4997753;28;20033;-21
2022/03/13 01:18:58;;;;;;;14.60;11.48;;;;;;;-0.42;54.07;101295.94;4999274;28;20022;-22
2022/03/13 01:21:24;;;;;;;14.18;10.98;;;;;;;-0.44;53.93;101298.47;4999418;28;20028;-20
2022/03/13 01:23:55;;;;;;;15.95;11.52;;;;;;;-0.49;54.54;101294.78;4995647;28;20077;-22
2022/03/13 01:26:23;;;;;;;15.35;11.30;;;;;;;-0.53;54.20;101287.69;4995119;28;20093;-22
2022/03/13 01:28:57;;;;;;;15.52;11.35;;;;;;;-0.55;54.58;101282.41;4992412;28;20053;-23
2022/03/13 01:31:25;;;;;;;18.08;10.65;;;;;;;-0.58;54.87;101283.97;4992647;28;20381;-20
2022/03/13 01:33:51;;;;;;;15.27;11.35;;;;;;;-0.61;54.32;101283.81;4997127;28;20504;-22
2022/03/13 01:36:17;;;;;;;14.23;10.98;;;;;;;-0.65;54.13;101283.69;4997431;28;20149;-22
2022/03/13 01:38:42;;;;;;;16.58;11.38;;;;;;;-0.68;55.01;101286.16;4964170;28;20069;-22
2022/03/13 01:41:08;;;;;;;17.85;11.65;;;;;;;-0.72;54.60;101286.81;4994593;28;20022;-22
2022/03/13 01:43:33;;;;;;;15.30;10.85;;;;;;;-0.74;54.17;101282.38;4997330;28;20041;-22
2022/03/13 01:45:59;;;;;;;13.38;10.73;;;;;;;-0.80;54.68;101277.81;4994262;28;20029;-19
2022/03/13 01:48:26;;;;;;;14.05;10.80;;;;;;;-0.80;54.57;101282.97;4995754;28;20015;-22
2022/03/13 01:50:51;;;;;;;16.17;11.30;;;;;;;-0.83;54.90;101283.69;4997265;28;20527;-22
2022/03/13 01:53:18;;;;;;;17.02;11.50;;;;;;;-0.89;54.69;101278.25;5003395;28;20026;-24
2022/03/13 01:55:44;;;;;;;16.58;12.10;;;;;;;-0.92;54.92;101279.00;4985815;28;20030;-22
2022/03/13 01:58:09;;;;;;;15.93;11.15;;;;;;;-0.92;54.99;101284.16;5000597;28;20044;-22
2022/03/13 02:00:34;;;;;;;14.80;10.55;;;;;;;-0.95;54.48;101284.03;4996320;28;20078;-19
2022/03/13 02:03:00;;;;;;;16.75;11.63;;;;;;;-1.01;54.93;101275.94;5001788;28;20058;-22
2022/03/13 02:05:29;;;;;;;12.25;10.80;;;;;;;-1.02;54.96;101274.19;5001173;28;20018;-22
2022/03/13 02:07:55;;;;;;;15.38;11.45;;;;;;;-1.04;55.19;101289.63;5001024;28;20100;-21
2022/03/13 02:10:21;;;;;;;14.98;11.27;;;;;;;-1.08;55.08;101284.22;5000518;28;20396;-22
2022/03/13 02:12:47;;;;;;;15.98;10.13;;;;;;;-1.11;55.01;101281.47;5000688;28;20034;-22
2022/03/13 02:15:12;;;;;;;16.30;11.00;;;;;;;-1.15;55.01;101275.28;4997938;28;20026;-22
2022/03/13 02:17:38;;;;;;;14.27;11.23;;;;;;;-1.17;54.70;101285.56;5000375;28;20380;-22
2022/03/13 02:20:04;;;;;;;17.20;11.70;;;;;;;-1.21;54.99;101285.31;4995965;28;20069;-22
2022/03/13 02:22:30;;;;;;;16.30;11.00;;;;;;;-1.22;54.63;101279.28;4997120;28;20110;-21
2022/03/13 02:24:55;;;;;;;18.55;11.57;;;;;;;-1.23;54.69;101280.06;4999801;28;20022;-22
2022/03/13 02:27:25;;;;;;;15.60;11.88;;;;;;;-1.30;55.05;101270.25;4998851;28;20029;-22
2022/03/13 02:29:51;;;;;;;19.52;11.68;;;;;;;-1.31;55.06;101273.63;4998819;28;20591;-21
2022/03/13 02:32:18;;;;;;;15.55;10.93;;;;;;;-1.33;55.29;101276.16;4997220;28;20040;-22
2022/03/13 02:34:43;;;;;;;15.02;10.02;;;;;;;-1.36;55.00;101273.44;5000472;28;20037;-21
2022/03/13 02:37:30;;;;;;;14.68;10.82;;;;;;;-1.39;54.74;101264.59;4996061;28;20026;-22
2022/03/13 02:39:56;;;;;;;16.48;11.35;;;;;;;-1.43;54.92;101259.28;4987057;28;20026;-23
2022/03/13 02:42:21;;;;;;;16.42;10.80;;;;;;;-1.45;54.93;101266.09;4996133;28;20036;-22
2022/03/13 02:44:46;;;;;;;16.98;11.77;;;;;;;-1.48;54.86;101260.75;4999805;28;20042;-22
2022/03/13 02:47:12;;;;;;;14.73;10.55;;;;;;;-1.51;55.32;101255.44;4997792;28;20025;-21
2022/03/13 02:49:37;;;;;;;15.98;10.30;;;;;;;-1.55;55.35;101249.22;4997655;28;20030;-22
2022/03/13 02:52:05;;;;;;;15.13;10.88;;;;;;;-1.56;55.38;101254.31;4997598;28;20021;-22
2022/03/13 02:54:30;;;;;;;15.95;10.43;;;;;;;-1.59;55.03;101254.16;4998395;28;20449;-21
2022/03/13 02:56:56;;;;;;;14.68;10.88;;;;;;;-1.62;55.15;101247.13;4997097;28;20049;-22
2022/03/13 02:59:21;;;;;;;13.75;10.48;;;;;;;-1.69;55.43;101260.56;4994656;28;20083;-22
2022/03/13 03:01:47;;;;;;;14.27;10.43;;;;;;;-1.68;55.37;101258.06;4994422;28;20469;-21
2022/03/13 03:04:12;;;;;;;13.18;11.30;;;;;;;-1.72;55.31;101253.56;4992159;28;20026;-21
2022/03/13 03:06:39;;;;;;;12.15;9.27;;;;;;;-1.73;55.04;101261.22;4997312;28;20029;-22
2022/03/13 03:09:05;;;;;;;14.15;10.30;;;;;;;-1.78;55.37;101255.81;4998772;28;20458;-22
2022/03/13 03:11:32;;;;;;;12.63;10.15;;;;;;;-1.80;55.19;101257.44;5007116;28;20137;-21
2022/03/13 03:13:59;;;;;;;17.15;11.25;;;;;;;-1.84;55.29;101248.63;5006538;28;20065;-22
2022/03/13 03:16:24;;;;;;;14.43;10.10;;;;;;;-1.86;55.44;101249.38;5005898;28;20029;-21
2022/03/13 03:18:49;;;;;;;15.32;10.48;;;;;;;-1.91;55.74;101243.09;5008428;28;20034;-21
2022/03/13 03:21:15;;;;;;;13.13;10.38;;;;;;;-1.92;55.58;101241.28;4996154;28;20090;-22
2022/03/13 03:23:40;;;;;;;13.73;11.23;;;;;;;-1.95;55.49;101248.09;4994118;28;20373;-23
2022/03/13 03:26:06;;;;;;;14.98;11.32;;;;;;;-1.97;55.59;101251.41;4993269;28;20029;-20
2022/03/13 03:28:32;;;;;;;14.80;9.85;;;;;;;-2.01;55.10;101250.34;4997079;28;20404;-22
2022/03/13 03:31:02;;;;;;;12.23;9.98;;;;;;;-2.04;55.57;101254.50;4995921;28;20053;-23
2022/03/13 03:33:27;;;;;;;13.85;11.00;;;;;;;-2.05;55.55;101256.19;4995836;28;20029;-21
2022/03/13 03:35:53;;;;;;;12.77;9.32;;;;;;;-2.08;55.57;101250.84;4995168;28;20022;-22
2022/03/13 03:38:19;;;;;;;14.10;10.68;;;;;;;-2.11;55.51;101256.75;4992857;28;20049;-21
2022/03/13 03:40:44;;;;;;;20.02;11.65;;;;;;;-2.17;55.23;101251.25;4990224;28;20045;-21
2022/03/13 03:43:09;;;;;;;13.85;10.07;;;;;;;-2.17;55.40;101259.00;4993007;28;20104;-22
2022/03/13 03:45:35;;;;;;;14.48;10.25;;;;;;;-2.20;55.39;101256.28;4987595;28;20022;-20
2022/03/13 03:48:00;;;;;;;15.68;10.23;;;;;;;-2.22;55.25;101252.72;4992982;28;20538;-21
2022/03/13 03:50:27;;;;;;;15.35;10.63;;;;;;;-2.27;55.65;101244.69;4995329;28;20022;-22
2022/03/13 03:52:55;;;;;;;14.40;10.93;;;;;;;-2.28;55.52;101258.44;4992224;28;20026;-22
2022/03/13 03:55:20;;;;;;;14.57;10.57;;;;;;;-2.32;55.53;101251.34;4994233;28;20046;-21
2022/03/13 03:57:46;;;;;;;15.68;10.50;;;;;;;-2.32;55.42;101259.09;4995262;28;20053;-22
2022/03/13 04:00:12;;;;;;;14.88;10.20;;;;;;;-2.36;55.21;101258.06;4993527;28;20025;-22
2022/03/13 04:02:38;;;;;;;12.55;9.95;;;;;;;-2.39;55.86;101257.88;4993288;28;20046;-23
2022/03/13 04:05:04;;;;;;;13.98;9.93;;;;;;;-2.42;55.86;101265.47;4991062;28;20038;-22
2022/03/13 04:07:30;;;;;;;15.25;10.52;;;;;;;-2.43;55.42;101270.53;4991410;28;20500;-23
2022/03/13 04:09:55;;;;;;;14.35;10.50;;;;;;;-2.47;55.39;101269.50;4994900;28;20070;-22
2022/03/13 04:12:20;;;;;;;12.27;9.77;;;;;;;-2.51;55.81;101271.03;4991307;28;20022;-21
2022/03/13 04:14:46;;;;;;;13.80;10.45;;;;;;;-2.52;55.64;101274.41;4994406;28;20057;-21
2022/03/13 04:17:11;;;;;;;13.98;10.50;;;;;;;-2.54;55.49;101272.56;4990128;28;20053;-22
2022/03/13 04:19:37;;;;;;;14.55;11.25;;;;;;;-2.56;55.54;101281.91;4998068;28;20026;-19
2022/03/13 04:22:03;;;;;;;15.05;10.80;;;;;;;-2.59;55.91;101277.47;4992817;28;20026;-22
2022/03/13 04:24:30;;;;;;;15.82;10.82;;;;;;;-2.62;55.63;101275.63;4993953;28;20034;-22
2022/03/13 04:26:56;;;;;;;14.63;10.52;;;;;;;-2.64;56.04;101273.75;4988637;28;20033;-21
2022/03/13 04:29:23;;;;;;;13.38;10.57;;;;;;;-2.66;55.86;101272.78;4992939;28;20030;-22
2022/03/13 04:31:49;;;;;;;13.50;9.60;;;;;;;-2.67;55.85;101271.00;4991807;28;20026;-21
2022/03/13 04:34:16;;;;;;;14.20;10.25;;;;;;;-2.72;56.24;101271.63;4991456;28;20021;-21
2022/03/13 04:36:42;;;;;;;15.50;11.07;;;;;;;-2.74;56.01;101272.34;4988988;28;20539;-22
2022/03/13 04:39:08;;;;;;;15.38;10.93;;;;;;;-2.77;56.21;101267.91;4991701;28;20027;-26
2022/03/13 04:41:34;;;;;;;15.60;10.35;;;;;;;-2.79;55.90;101266.94;4992988;28;20034;-22
2022/03/13 04:43:59;;;;;;;16.10;10.88;;;;;;;-2.80;56.15;101272.03;4991349;28;20037;-22
2022/03/13 04:46:27;;;;;;;14.18;11.50;;;;;;;-2.83;55.96;101272.75;4992132;28;20133;-22
2022/03/13 04:48:57;;;;;;;13.48;10.80;;;;;;;-2.87;55.83;101268.22;4993189;28;20018;-22
2022/03/13 04:51:22;;;;;;;13.07;10.70;;;;;;;-2.89;55.79;101267.22;4989664;28;20026;-21
2022/03/13 04:53:47;;;;;;;15.77;10.75;;;;;;;-2.92;55.93;101262.78;4991892;28;20021;-19
2022/03/13 04:56:13;;;;;;;15.10;10.85;;;;;;;-2.93;56.07;101265.28;4990540;28;20105;-22
2022/03/13 04:58:38;;;;;;;13.55;10.63;;;;;;;-2.97;56.26;101265.09;4992040;28;20101;-22
2022/03/13 05:01:04;;;;;;;14.75;10.32;;;;;;;-2.99;55.86;101271.91;4993003;28;20029;-21
2022/03/13 05:03:33;;;;;;;15.07;10.57;;;;;;;-3.01;56.17;101272.59;4992022;28;20058;-20
2022/03/13 05:05:59;;;;;;;13.65;10.40;;;;;;;-3.03;55.91;101275.06;4992680;28;20571;-22
2022/03/13 05:08:26;;;;;;;12.57;9.75;;;;;;;-3.04;56.21;101277.59;4995751;28;20025;-21
2022/03/13 05:10:52;;;;;;;17.27;13.52;;;;;;;-3.06;56.09;101276.59;4990505;28;20049;-22
2022/03/13 05:13:17;;;;;;;29.60;20.17;;;;;;;-3.10;56.34;101278.16;4990710;28;20034;-20
2022/03/13 05:15:44;;;;;;;30.45;19.15;;;;;;;-3.11;56.20;101276.34;4991961;28;20065;-22
2022/03/13 05:18:10;;;;;;;25.10;17.77;;;;;;;-3.14;56.03;101276.19;4990829;28;20026;-22
2022/03/13 05:20:36;;;;;;;24.27;16.50;;;;;;;-3.16;55.94;101282.94;4992440;28;20018;-22
2022/03/13 05:23:03;;;;;;;23.50;15.98;;;;;;;-3.19;56.14;101287.94;4991248;28;20026;-22
2022/03/13 05:25:30;;;;;;;23.15;15.80;;;;;;;-3.21;56.17;101295.56;4996641;28;20030;-21
2022/03/13 05:27:55;;;;;;;23.20;14.88;;;;;;;-3.22;56.22;101294.72;4992109;28;20026;-23
2022/03/13 05:30:21;;;;;;;19.85;13.02;;;;;;;-3.24;56.11;101291.13;4996939;28;20080;-22
2022/03/13 05:32:48;;;;;;;23.15;15.43;;;;;;;-3.27;56.10;101290.94;5010757;28;20025;-22
2022/03/13 05:35:14;;;;;;;24.60;16.88;;;;;;;-3.29;56.38;101295.16;5011834;28;20103;-21
2022/03/13 05:37:39;;;;;;;33.78;22.92;;;;;;;-3.31;56.08;101286.41;5008002;28;20116;-22
2022/03/13 05:40:06;;;;;;;34.95;24.95;;;;;;;-3.33;56.40;101300.94;5010360;28;20164;-23
2022/03/13 05:42:31;;;;;;;34.38;23.60;;;;;;;-3.36;56.10;101298.19;5008206;28;20037;-19
2022/03/13 05:44:57;;;;;;;34.90;22.48;;;;;;;-3.36;56.35;101300.75;5002682;28;20396;-22
2022/03/13 05:47:22;;;;;;;31.00;21.63;;;;;;;-3.38;56.32;101299.75;5008005;28;20037;-22
2022/03/13 05:49:48;;;;;;;30.30;19.92;;;;;;;-3.41;56.45;101302.16;5005566;28;20026;-22
2022/03/13 05:52:15;;;;;;;24.77;19.05;;;;;;;-3.41;56.34;101304.75;4991383;28;20026;-21
2022/03/13 05:54:42;;;;;;;26.90;19.00;;;;;;;-3.42;56.35;101308.13;4996623;28;20169;-22
2022/03/13 05:57:10;;;;;;;26.55;18.70;;;;;;;-3.45;56.52;101305.38;4993572;28;20628;-22
2022/03/13 05:59:36;;;;;;;25.33;16.92;;;;;;;-3.46;56.40;101307.06;4995966;28;20092;-22
2022/03/13 06:02:03;;;;;;;24.80;16.67;;;;;;;-3.48;56.34;101301.81;4990934;28;20399;-20
2022/03/13 06:04:29;;;;;;;27.02;17.35;;;;;;;-3.49;56.56;101307.78;4990544;28;20057;-22
2022/03/13 06:06:54;;;;;;;23.60;16.90;;;;;;;-3.50;56.34;101312.84;4991180;28;20113;-23
2022/03/13 06:09:20;;;;;;;24.65;17.33;;;;;;;-3.51;56.77;101301.63;4993784;28;20097;-22
2022/03/13 06:11:45;;;;;;;24.50;17.60;;;;;;;-3.52;56.84;101305.03;4999045;28;20072;-20
2022/03/13 06:14:10;;;;;;;23.42;17.10;;;;;;;-3.53;56.72;101307.50;4993390;28;20037;-22
2022/03/13 06:16:36;;;;;;;25.27;17.25;;;;;;;-3.53;56.67;101302.34;4992312;28;20033;-22
2022/03/13 06:19:01;;;;;;;26.17;18.50;;;;;;;-3.53;56.94;101313.53;4995067;28;20077;-21
2022/03/13 06:21:26;;;;;;;26.95;18.13;;;;;;;-3.55;56.74;101299.69;4996431;28;20065;-22
2022/03/13 06:23:52;;;;;;;27.27;19.00;;;;;;;-3.53;56.75;101307.50;4995777;28;20042;-22
2022/03/13 06:26:17;;;;;;;24.10;17.70;;;;;;;-3.56;56.82;101308.22;4995454;28;20033;-22
2022/03/13 06:28:42;;;;;;;22.80;18.75;;;;;;;-3.57;56.88;101319.31;4995674;28;20065;-21
2022/03/13 06:31:09;;;;;;;24.00;17.98;;;;;;;-3.56;56.96;101302.16;4995407;28;20547;-22
2022/03/13 06:33:34;;;;;;;28.45;17.75;;;;;;;-3.56;57.16;101313.38;4996365;28;20027;-21
2022/03/13 06:36:00;;;;;;;25.08;17.70;;;;;;;-3.57;56.76;101311.59;4993574;28;20033;-21
2022/03/13 06:38:26;;;;;;;21.45;17.38;;;;;;;-3.56;57.03;101312.47;4992608;28;20019;-28
2022/03/13 06:40:51;;;;;;;23.83;16.63;;;;;;;-3.56;56.87;101322.81;4994333;28;20088;-22
2022/03/13 06:43:17;;;;;;;24.33;16.65;;;;;;;-3.56;57.05;101320.22;4991972;28;20032;-25
2022/03/13 06:45:42;;;;;;;25.20;15.48;;;;;;;-3.56;57.21;101313.38;4994107;28;20037;-23
2022/03/13 06:48:08;;;;;;;22.83;15.95;;;;;;;-3.56;57.46;101312.47;4993756;28;20615;-22
2022/03/13 06:50:33;;;;;;;21.30;15.52;;;;;;;-3.54;57.30;101316.06;4992430;28;20053;-22
2022/03/13 06:53:00;;;;;;;22.90;16.15;;;;;;;-3.55;57.25;101311.69;4993425;28;20010;-23
2022/03/13 06:55:25;;;;;;;21.63;15.13;;;;;;;-3.51;57.29;101319.69;4993053;28;20026;-22
2022/03/13 06:57:51;;;;;;;25.88;16.35;;;;;;;-3.49;57.34;101319.78;4991683;28;20030;-22
2022/03/13 07:00:17;;;;;;;23.20;16.00;;;;;;;-3.48;57.44;101312.13;4995764;28;20022;-23
2022/03/13 07:02:42;;;;;;;22.30;15.00;;;;;;;-3.45;57.16;101316.59;4990082;28;20576;-22
2022/03/13 07:05:08;;;;;;;21.55;15.23;;;;;;;-3.44;57.06;101313.19;4979182;28;20014;-21
2022/03/13 07:07:33;;;;;;;19.83;13.27;;;;;;;-3.41;57.32;101315.97;4992849;28;20523;-21
2022/03/13 07:09:59;;;;;;;18.48;14.40;;;;;;;-3.38;57.57;101312.66;4991812;28;20025;-22
2022/03/13 07:12:25;;;;;;;20.73;14.27;;;;;;;-3.35;57.37;101320.59;4994831;28;20076;-21
2022/03/13 07:14:51;;;;;;;18.90;14.20;;;;;;;-3.32;57.31;101318.19;4989753;28;20046;-24
2022/03/13 07:17:17;;;;;;;17.92;14.05;;;;;;;-3.28;57.53;101312.41;4993750;28;20026;-22
2022/03/13 07:19:44;;;;;;;21.73;15.10;;;;;;;-3.23;57.58;101317.84;4992453;28;20077;-22
2022/03/13 07:22:11;;;;;;;20.38;13.38;;;;;;;-3.18;57.97;101313.81;4993554;28;20428;-22
2022/03/13 07:24:37;;;;;;;16.95;13.38;;;;;;;-3.14;57.71;101317.50;4992944;28;20109;-19
2022/03/13 07:27:03;;;;;;;16.48;12.10;;;;;;;-3.06;57.64;101321.38;4993853;28;20115;-22
2022/03/13 07:29:28;;;;;;;17.42;12.85;;;;;;;-3.02;57.68;101313.00;4996985;28;20138;-22
2022/03/13 07:31:56;;;;;;;16.50;12.20;;;;;;;-2.96;57.48;101313.34;4991279;28;20505;-22
2022/03/13 07:34:26;;;;;;;16.27;11.93;;;;;;;-2.88;58.00;101312.88;4993878;28;20029;-24
2022/03/13 07:36:52;;;;;;;14.93;11.65;;;;;;;-2.81;57.63;101308.97;4991876;28;20026;-22
2022/03/13 07:39:18;;;;;;;15.80;11.82;;;;;;;-2.74;57.73;101318.81;4991577;28;20456;-22
2022/03/13 07:41:45;;;;;;;14.88;11.55;;;;;;;-2.69;57.95;101307.06;4988378;28;20534;-22
2022/03/13 07:44:11;;;;;;;14.88;11.27;;;;;;;-2.60;58.03;101311.88;4993592;28;20072;-22
2022/03/13 07:46:36;;;;;;;16.70;11.45;;;;;;;-2.51;57.78;101304.59;4979614;28;20034;-22
2022/03/13 07:49:02;;;;;;;16.95;10.63;;;;;;;-2.42;57.89;101298.16;4999207;28;20038;-22
2022/03/13 07:51:27;;;;;;;15.98;11.23;;;;;;;-2.34;57.60;101297.75;4999296;28;20032;-23
2022/03/13 07:53:53;;;;;;;17.33;10.70;;;;;;;-2.26;57.22;101299.88;4995287;28;20647;-21
2022/03/13 07:56:18;;;;;;;15.48;10.95;;;;;;;-2.17;57.20;101300.34;4996754;28;20026;-22
2022/03/13 07:58:44;;;;;;;17.42;10.75;;;;;;;-2.10;57.80;101292.13;4989570;28;20050;-22
2022/03/13 08:01:09;;;;;;;14.00;10.07;;;;;;;-2.01;57.72;101289.13;4996626;28;20026;-22
2022/03/13 08:03:37;;;;;;;14.27;9.60;;;;;;;-1.89;57.61;101288.91;4995792;28;20404;-22
2022/03/13 08:06:03;;;;;;;14.52;10.13;;;;;;;-1.79;56.80;101290.25;4998271;28;20037;-23
2022/03/13 08:08:29;;;;;;;14.23;10.05;;;;;;;-1.69;56.94;101292.50;4996366;28;20041;-22
2022/03/13 08:10:54;;;;;;;11.65;9.95;;;;;;;-1.58;56.64;101295.63;5002208;28;20107;-22
2022/03/13 08:13:19;;;;;;;15.32;9.85;;;;;;;-1.50;57.34;101277.88;4995124;28;20022;-22
2022/03/13 08:15:45;;;;;;;13.27;9.13;;;;;;;-1.37;57.19;101283.69;4998413;28;20018;-22
2022/03/13 08:18:12;;;;;;;12.13;9.23;;;;;;;-1.28;56.53;101278.97;4993160;28;20048;-22
2022/03/13 08:20:38;;;;;;;13.18;9.70;;;;;;;-1.17;56.33;101276.91;4993873;28;20022;-22
2022/03/13 08:23:03;;;;;;;15.77;9.38;;;;;;;-1.05;56.55;101274.03;4996419;28;20026;-21
2022/03/13 08:25:29;;;;;;;11.70;9.43;;;;;;;-0.94;56.55;101277.13;4992185;28;20036;-22
2022/03/13 08:27:55;;;;;;;11.75;8.88;;;;;;;-0.83;56.71;101277.66;4993356;28;20499;-23
2022/03/13 08:30:21;;;;;;;10.88;8.38;;;;;;;-0.72;56.07;101273.88;5002871;28;20022;-22
2022/03/13 08:32:46;;;;;;;10.82;8.77;;;;;;;-0.61;56.12;101273.44;4990086;28;20031;-21
2022/03/13 08:35:12;;;;;;;10.10;8.40;;;;;;;-0.50;56.30;101274.84;4995850;28;20061;-22
2022/03/13 08:37:37;;;;;;;12.60;9.65;;;;;;;-0.37;55.66;101275.41;4993367;28;20385;-21
2022/03/13 08:40:04;;;;;;;12.77;9.35;;;;;;;-0.27;55.95;101264.63;4999465;28;20026;-23
2022/03/13 08:42:30;;;;;;;12.32;8.73;;;;;;;-0.16;55.80;101273.78;4992882;28;20033;-23
2022/03/13 08:44:56;;;;;;;10.75;8.38;;;;;;;-0.04;56.29;101272.53;4997357;28;20022;-22
2022/03/13 08:47:22;;;;;;;9.88;8.80;;;;;;;0.08;55.35;101265.31;4993247;28;20402;-22
2022/03/13 08:49:47;;;;;;;13.07;9.13;;;;;;;0.19;55.63;101257.09;4993967;28;20030;-22
2022/03/13 08:52:13;;;;;;;13.88;10.30;;;;;;;0.32;55.13;101258.50;4995000;28;20480;-22
2022/03/13 08:54:38;;;;;;;14.13;9.15;;;;;;;0.44;55.32;101255.56;4996403;28;20557;-22
2022/03/13 08:57:03;;;;;;;13.20;9.45;;;;;;;0.56;55.21;101256.06;4995381;28;20050;-22
2022/03/13 08:59:35;;;;;;;12.77;9.18;;;;;;;0.67;55.19;101256.53;4993293;28;20030;-22
2022/03/13 09:02:01;;;;;;;11.30;8.77;;;;;;;0.81;55.36;101249.28;4997887;28;20088;-22
2022/03/13 09:04:27;;;;;;;11.73;9.45;;;;;;;0.93;54.86;101250.59;4983905;28;20018;-23
2022/03/13 09:06:54;;;;;;;11.95;9.20;;;;;;;1.09;54.90;101257.28;4996920;28;20033;-22
2022/03/13 09:09:20;;;;;;;11.43;8.80;;;;;;;1.22;54.81;101261.25;4991717;28;20073;-21
2022/03/13 09:11:47;;;;;;;11.93;8.57;;;;;;;1.35;54.50;101254.81;4993946;28;20049;-22
2022/03/13 09:14:13;;;;;;;12.27;9.02;;;;;;;1.51;54.81;101261.47;4998662;28;20061;-22
2022/03/13 09:16:40;;;;;;;10.48;8.35;;;;;;;1.65;54.48;101256.78;4993944;28;20026;-21
2022/03/13 09:19:05;;;;;;;14.60;8.30;;;;;;;1.75;54.13;101255.41;4997665;28;20078;-22
2022/03/13 09:21:33;;;;;;;14.32;9.10;;;;;;;1.85;54.14;101247.13;4987544;28;20053;-21
2022/03/13 09:23:59;;;;;;;13.52;8.85;;;;;;;2.03;54.48;101251.19;4990424;28;20028;-23
2022/03/13 09:26:26;;;;;;;12.10;8.95;;;;;;;2.18;53.91;101249.16;4992319;28;20384;-22
2022/03/13 09:28:51;;;;;;;11.90;8.75;;;;;;;2.33;54.20;101245.28;4987510;28;20023;-22
2022/03/13 09:31:16;;;;;;;13.32;9.30;;;;;;;2.50;54.08;101247.59;4991942;28;20040;-22
2022/03/13 09:33:42;;;;;;;12.13;8.95;;;;;;;2.63;53.45;101254.97;4991224;28;20027;-22
2022/03/13 09:36:07;;;;;;;13.73;9.40;;;;;;;2.76;53.29;101255.34;4989805;28;20022;-21
2022/03/13 09:38:33;;;;;;;10.88;8.88;;;;;;;2.91;53.30;101253.28;5004935;28;20148;-22
2022/03/13 09:40:58;;;;;;;11.43;8.38;;;;;;;3.07;53.04;101245.94;4997771;28;20034;-23
2022/03/13 09:43:24;;;;;;;9.77;8.77;;;;;;;3.21;53.38;101247.22;4991908;28;20026;-22
2022/03/13 09:45:49;;;;;;;12.10;8.88;;;;;;;3.35;53.42;101251.97;4995865;28;20084;-22
2022/03/13 09:48:17;;;;;;;12.38;8.60;;;;;;;3.46;52.97;101250.56;5000180;28;20028;-22
2022/03/13 09:50:43;;;;;;;10.50;8.45;;;;;;;3.64;52.65;101257.19;5002141;28;20113;-22
2022/03/13 09:53:08;;;;;;;12.23;8.57;;;;;;;3.81;52.75;101251.56;4998993;28;20045;-22
2022/03/13 09:55:34;;;;;;;10.70;8.32;;;;;;;3.95;52.51;101255.44;5002703;28;20142;-22
2022/03/13 09:57:59;;;;;;;9.63;8.15;;;;;;;4.05;52.37;101248.75;4996499;28;20460;-21
2022/03/13 10:00:26;;;;;;;11.60;8.65;;;;;;;4.17;52.17;101250.78;4996646;28;20030;-21
2022/03/13 10:02:54;;;;;;;10.85;8.50;;;;;;;4.30;52.05;101251.13;4991889;28;20255;-23
2022/03/13 10:05:20;;;;;;;10.52;8.35;;;;;;;4.41;51.56;101254.91;4993282;28;20047;-24
2022/03/13 10:07:53;;;;;;;11.15;8.77;;;;;;;4.61;51.67;101247.53;4998815;28;20032;-28
2022/03/13 10:10:19;;;;;;;11.73;8.93;;;;;;;4.73;51.17;101253.91;4978065;28;20041;-20
2022/03/13 10:12:46;;;;;;;9.73;7.97;;;;;;;4.82;50.82;101248.03;4991321;28;20054;-23
2022/03/13 10:15:12;;;;;;;9.50;8.30;;;;;;;4.95;50.90;101250.09;4998305;28;20033;-22
2022/03/13 10:17:38;;;;;;;11.15;8.90;;;;;;;5.07;50.71;101246.00;5000210;28;20026;-21
2022/03/13 10:20:26;;;;;;;10.50;8.18;;;;;;;5.23;50.12;101249.81;5005594;28;20023;-21
2022/03/13 10:23:04;;;;;;;10.52;7.85;;;;;;;5.36;50.11;101246.66;4998613;28;20759;-23
2022/03/13 10:25:31;;;;;;;13.70;8.52;;;;;;;5.50;50.95;101246.94;5001714;28;20120;-22
2022/03/13 10:28:20;;;;;;;11.48;7.80;;;;;;;5.67;50.69;101237.69;5003172;28;20022;-21
2022/03/13 10:31:05;;;;;;;10.68;8.50;;;;;;;5.83;51.00;101234.50;4996485;28;20105;-22
2022/03/13 10:33:43;;;;;;;9.73;7.93;;;;;;;5.99;51.22;101232.19;5001919;28;21375;-21
2022/03/13 10:36:11;;;;;;;10.60;8.73;;;;;;;6.08;50.46;101231.50;4999097;28;20025;-21
2022/03/13 10:38:38;;;;;;;12.02;8.00;;;;;;;6.19;50.65;101227.34;4999370;28;20145;-22
2022/03/13 10:41:12;;;;;;;14.48;9.30;;;;;;;6.31;50.19;101223.19;4998744;28;20033;-22
2022/03/13 10:43:54;;;;;;;11.25;8.15;;;;;;;6.45;50.34;101228.66;5006729;28;20105;-28
2022/03/13 10:46:29;;;;;;;10.45;8.45;;;;;;;6.60;49.98;101226.28;5003385;28;20084;-19
2022/03/13 10:48:56;;;;;;;9.88;7.95;;;;;;;6.71;49.93;101225.59;4999822;28;20026;-21
2022/03/13 10:51:34;;;;;;;11.20;9.55;;;;;;;6.82;49.68;101225.75;4997727;28;20111;-21
2022/03/13 10:54:00;;;;;;;10.73;8.90;;;;;;;6.95;49.56;101219.84;4991982;28;20015;-19
2022/03/13 10:56:27;;;;;;;10.25;8.23;;;;;;;7.11;49.55;101212.19;5002512;28;20391;-22
2022/03/13 10:58:52;;;;;;;11.40;7.72;;;;;;;7.22;50.13;101207.97;5003010;28;20370;-23
2022/03/13 11:01:19;;;;;;;11.73;8.13;;;;;;;7.34;49.77;101212.50;4994663;28;20077;-23
2022/03/13 11:03:49;;;;;;;11.05;8.85;;;;;;;7.48;49.80;101207.44;5002861;28;20022;-22
2022/03/13 11:06:15;;;;;;;10.27;9.00;;;;;;;7.58;50.16;101206.66;4997026;28;20457;-22
2022/03/13 11:08:41;;;;;;;11.48;8.70;;;;;;;7.65;49.81;101202.38;4998829;28;20509;-23
2022/03/13 11:11:08;;;;;;;11.65;7.95;;;;;;;7.77;49.63;101201.63;4999795;28;20018;-21